| Pilot: | GLD1793 Tiago I. | Aircraft: | C182 RG II | Distance: | 111NM |
| From: | LPHR | To: | LPLA | Duration: | 1.44 |
| Validation: | Valid | Tipo: | Charter | Tail Number: | PT-GLD |
| ZFW: | 2602 | Block Fuel/Init FOB | 87flight_details.php/59 | Flight Fuel | 87 |
| Passengers: | 2 | Cargo: | 50 | Alternate: | LPPD |
| Departure Time: | 1215 | Cruise Speed: | 153 | Flight Level: | FL700 |
| Flight Type: | IFR | Aircraft Type: | C182 | Weight Unit: | Kg |
| Date: | 02/05/2026 | Comments: | GOLD ACARS | Network: | VATSIM |
| Crash: | No | Validator Comments: | Rating | 89 |
| ROUTE | VELA1E VELAS DCT NOTMA DCT LACTA DCT |
| REMARKS | OPR/GOLD VIRTUAL AIRLINES PER/C RMK/FROM LPHR RMK/PIC GLD1793 |
| Crash | OK | Beacon Lights off with engine on | OK | Speed above 250KIAS below 10.000ft | OK |
| Landing Lights OFF below 10.000ft | OK | Landing Lights ON above 10.000ft | OK | Stall | OK |
| Overspeed | OK | Pause | OK | Refuel | OK |
| Slew | OK | Taxi Lights OFF during taxi | OK | Land Lights OFF during take off | OK |
| Landing Lights OFF during landing | OK | Landed in not planned airfield | OK | Taxi speed above 25 kt | Fault |
| Incorrect QNH during take off | OK | Incorrect QNH during landing | OK |
| Wind: | 90º/26 kt | Heading: | 116 |
| VS: | -199 ft/min | IAS: | 51 kt |
| Gforce: | 1.1008 G | Bank: | 1.22 |
| Pitch | 3.7 | Flaps | 100 |
| Nav Lights | ON | Landing Lights | ON |
| Beacon Lights | ON | Strobe Lights | OFF |
| DATE | EVENT | IAS | ALTITUDE |
|---|---|---|---|
| 2026-05-02 12:15:10 | GOLD ACARS VERSION 3.3.7.0 | 0 | 0 |
| 2026-05-02 12:15:11 | BOARDING | 0 | -95 |
| 2026-05-02 12:27:02 | STB LIGHTS ON | 0 | -95 |
| 2026-05-02 12:27:04 | STB LIGHTS OFF | 0 | -95 |
| 2026-05-02 12:30:04 | BCN LIGHTS ON | 0 | -95 |
| 2026-05-02 12:30:10 | NAV LIGHTS ON | 0 | -95 |
| 2026-05-02 12:30:14 | TAXI LIGHTS ON | 0 | -95 |
| 2026-05-02 12:30:27 | LND LIGHTS ON | 0 | -95 |
| 2026-05-02 12:30:36 | STARTING ENGINE 1 | 0 | -95 |
| 2026-05-02 12:31:45 | TAXI TO THE RWY | 0 | -93 |
| 2026-05-02 12:33:23 | FLAP 33% | 18 | -118 |
| 2026-05-02 12:33:51 | TAXI SPEED ABOVE 25 KTS | 77 | -98 |
| 2026-05-02 12:33:56 | CLIMBING | 86 | -83 |
| 2026-05-02 12:34:08 | FLAP 0% | 92 | 67 |
| 2026-05-02 12:34:13 | AP ENGAGED | 91 | 156 |
| 2026-05-02 12:34:21 | GEAR UP | 93 | 301 |
| 2026-05-02 12:40:40 | CRUISE | 89 | 6990 |
| 2026-05-02 13:09:49 | DESCEND | 113 | 6997 |
| 2026-05-02 13:32:33 | STOPPING ENGINE 1 | 137 | 1448 |
| 2026-05-02 13:33:03 | STARTING ENGINE 1 | 118 | 906 |
| 2026-05-02 13:33:06 | STOPPING ENGINE 1 | 120 | 857 |
| 2026-05-02 13:33:10 | STARTING ENGINE 1 | 115 | 813 |
| 2026-05-02 13:33:18 | AP DISENGAGED | 110 | 800 |
| 2026-05-02 13:33:34 | FLAP 33% | 90 | 796 |
| 2026-05-02 13:33:43 | GEAR DOWN | 79 | 798 |
| 2026-05-02 13:34:12 | FLAP 66% | 79 | 651 |
| 2026-05-02 13:34:17 | FLAP 100% | 77 | 624 |
| 2026-05-02 13:36:11 | LANDED AIRPORT [LPLA] | 51 | 172 |
| 2026-05-02 13:36:11 | LANDED - VS: -199 ft/min | 50 | 171 |
| 2026-05-02 13:36:23 | TAXI TO THE GATE | 29 | 167 |
| 2026-05-02 13:37:09 | FLAP 66% | 21 | 168 |
| 2026-05-02 13:37:09 | FLAP 0% | 21 | 168 |
| 2026-05-02 13:40:41 | AT THE GATE | 0 | 168 |
| 2026-05-02 13:41:19 | STOPPING ENGINE 1 | 0 | 168 |
| 2026-05-02 13:41:25 | LND LIGHTS OFF | 0 | 168 |
| 2026-05-02 13:41:27 | TAXI LIGHTS OFF | 0 | 168 |
| 2026-05-02 13:41:28 | NAV LIGHTS OFF | 0 | 168 |
| 2026-05-02 13:41:31 | BCN LIGHTS OFF | 0 | 168 |
| 2026-05-02 13:41:31 | FLIGHT FINISHED | 0 | 168 |
| 2026-05-02 12:15:10 | GOLD ACARS VERSION 3.3.7.0 | 0 | 0 |
| 2026-05-02 12:15:11 | BOARDING | 0 | -95 |
| 2026-05-02 12:27:02 | STB LIGHTS ON | 0 | -95 |
| 2026-05-02 12:27:04 | STB LIGHTS OFF | 0 | -95 |
| 2026-05-02 12:30:04 | BCN LIGHTS ON | 0 | -95 |
| 2026-05-02 12:30:10 | NAV LIGHTS ON | 0 | -95 |
| 2026-05-02 12:30:14 | TAXI LIGHTS ON | 0 | -95 |
| 2026-05-02 12:30:27 | LND LIGHTS ON | 0 | -95 |
| 2026-05-02 12:30:36 | STARTING ENGINE 1 | 0 | -95 |
| 2026-05-02 12:31:45 | TAXI TO THE RWY | 0 | -93 |
| 2026-05-02 12:33:23 | FLAP 33% | 18 | -118 |
| 2026-05-02 12:33:51 | TAXI SPEED ABOVE 25 KTS | 77 | -98 |
| 2026-05-02 12:33:56 | CLIMBING | 86 | -83 |
| 2026-05-02 12:34:08 | FLAP 0% | 92 | 67 |
| 2026-05-02 12:34:13 | AP ENGAGED | 91 | 156 |
| 2026-05-02 12:34:21 | GEAR UP | 93 | 301 |
| 2026-05-02 12:40:40 | CRUISE | 89 | 6990 |
| 2026-05-02 13:09:49 | DESCEND | 113 | 6997 |
| 2026-05-02 13:32:33 | STOPPING ENGINE 1 | 137 | 1448 |
| 2026-05-02 13:33:03 | STARTING ENGINE 1 | 118 | 906 |
| 2026-05-02 13:33:06 | STOPPING ENGINE 1 | 120 | 857 |
| 2026-05-02 13:33:10 | STARTING ENGINE 1 | 115 | 813 |
| 2026-05-02 13:33:18 | AP DISENGAGED | 110 | 800 |
| 2026-05-02 13:33:34 | FLAP 33% | 90 | 796 |
| 2026-05-02 13:33:43 | GEAR DOWN | 79 | 798 |
| 2026-05-02 13:34:12 | FLAP 66% | 79 | 651 |
| 2026-05-02 13:34:17 | FLAP 100% | 77 | 624 |
| 2026-05-02 13:36:11 | LANDED AIRPORT [LPLA] | 51 | 172 |
| 2026-05-02 13:36:11 | LANDED - VS: -199 ft/min | 50 | 171 |
| 2026-05-02 13:36:23 | TAXI TO THE GATE | 29 | 167 |
| 2026-05-02 13:37:09 | FLAP 66% | 21 | 168 |
| 2026-05-02 13:37:09 | FLAP 0% | 21 | 168 |
| 2026-05-02 13:40:41 | AT THE GATE | 0 | 168 |
| 2026-05-02 13:41:19 | STOPPING ENGINE 1 | 0 | 168 |
| 2026-05-02 13:41:25 | LND LIGHTS OFF | 0 | 168 |
| 2026-05-02 13:41:27 | TAXI LIGHTS OFF | 0 | 168 |
| 2026-05-02 13:41:28 | NAV LIGHTS OFF | 0 | 168 |
| 2026-05-02 13:41:31 | BCN LIGHTS OFF | 0 | 168 |
| 2026-05-02 13:41:31 | FLIGHT FINISHED | 0 | 168 |
| 2026-05-02 13:44:36 | NAV LIGHTS ON | 0 | 168 |
| 2026-05-02 13:44:37 | NAV LIGHTS OFF | 0 | 168 |
| 2026-05-02 13:44:38 | NAV LIGHTS ON | 0 | 168 |
| 2026-05-02 13:44:40 | NAV LIGHTS OFF | 0 | 168 |
| 2026-05-02 13:44:41 | NAV LIGHTS ON | 0 | 168 |
| 2026-05-02 13:44:45 | BCN LIGHTS ON | 0 | 168 |
| 2026-05-02 13:44:46 | BCN LIGHTS OFF | 0 | 168 |
| 2026-05-02 13:44:47 | BCN LIGHTS ON | 0 | 168 |
| 2026-05-02 13:44:47 | BCN LIGHTS OFF | 0 | 168 |
| 2026-05-02 13:44:48 | BCN LIGHTS ON | 0 | 168 |
| 2026-05-02 13:44:48 | BCN LIGHTS OFF | 0 | 168 |
| 2026-05-02 13:44:50 | NAV LIGHTS OFF | 0 | 168 |
| 2026-05-02 13:44:52 | TAXI LIGHTS ON | 0 | 168 |
| 2026-05-02 13:44:53 | TAXI LIGHTS OFF | 0 | 168 |
| 2026-05-02 13:44:54 | TAXI LIGHTS ON | 0 | 168 |
| 2026-05-02 13:44:54 | TAXI LIGHTS OFF | 0 | 168 |
| 2026-05-02 13:44:56 | STB LIGHTS ON | 0 | 168 |
| 2026-05-02 13:44:57 | STB LIGHTS OFF | 0 | 168 |
| 2026-05-02 13:44:57 | STB LIGHTS ON | 0 | 168 |
| 2026-05-02 13:44:58 | STB LIGHTS OFF | 0 | 168 |
| 2026-05-02 13:44:59 | STB LIGHTS ON | 0 | 168 |
| 2026-05-02 13:44:59 | STB LIGHTS OFF | 0 | 168 |
| 2026-05-02 13:45:00 | STB LIGHTS ON | 0 | 168 |
| 2026-05-02 13:45:02 | STB LIGHTS OFF | 0 | 168 |
| 2026-05-02 13:45:03 | STB LIGHTS ON | 0 | 168 |
| 2026-05-02 13:45:03 | STB LIGHTS OFF | 0 | 168 |
| 2026-05-02 13:45:03 | STB LIGHTS ON | 0 | 168 |
| 2026-05-02 13:45:05 | LND LIGHTS ON | 0 | 168 |
| 2026-05-02 13:45:05 | LND LIGHTS OFF | 0 | 168 |
| 2026-05-02 13:45:06 | LND LIGHTS ON | 0 | 168 |
| 2026-05-02 13:45:06 | LND LIGHTS OFF | 0 | 168 |
| 2026-05-02 13:45:07 | LND LIGHTS ON | 0 | 168 |
| 2026-05-02 13:45:07 | STB LIGHTS OFF | 0 | 168 |
| 2026-05-02 13:45:08 | STB LIGHTS ON | 0 | 168 |
| 2026-05-02 13:45:08 | STB LIGHTS OFF | 0 | 168 |
| 2026-05-02 13:45:09 | STB LIGHTS ON | 0 | 168 |
| 2026-05-02 14:01:11 | NAV LIGHTS ON | 0 | 168 |
| 2026-05-02 14:01:12 | BCN LIGHTS ON | 0 | 168 |
| 2026-05-02 14:01:12 | TAXI LIGHTS ON | 0 | 168 |
| 2026-05-02 12:15:10 | GOLD ACARS VERSION 3.3.7.0 | 0 | 0 |
| 2026-05-02 12:15:11 | BOARDING | 0 | -95 |
| 2026-05-02 12:27:02 | STB LIGHTS ON | 0 | -95 |
| 2026-05-02 12:27:04 | STB LIGHTS OFF | 0 | -95 |
| 2026-05-02 12:30:04 | BCN LIGHTS ON | 0 | -95 |
| 2026-05-02 12:30:10 | NAV LIGHTS ON | 0 | -95 |
| 2026-05-02 12:30:14 | TAXI LIGHTS ON | 0 | -95 |
| 2026-05-02 12:30:27 | LND LIGHTS ON | 0 | -95 |
| 2026-05-02 12:30:36 | STARTING ENGINE 1 | 0 | -95 |
| 2026-05-02 12:31:45 | TAXI TO THE RWY | 0 | -93 |
| 2026-05-02 12:33:23 | FLAP 33% | 18 | -118 |
| 2026-05-02 12:33:51 | TAXI SPEED ABOVE 25 KTS | 77 | -98 |
| 2026-05-02 12:33:56 | CLIMBING | 86 | -83 |
| 2026-05-02 12:34:08 | FLAP 0% | 92 | 67 |
| 2026-05-02 12:34:13 | AP ENGAGED | 91 | 156 |
| 2026-05-02 12:34:21 | GEAR UP | 93 | 301 |
| 2026-05-02 12:40:40 | CRUISE | 89 | 6990 |
| 2026-05-02 13:09:49 | DESCEND | 113 | 6997 |
| 2026-05-02 13:32:33 | STOPPING ENGINE 1 | 137 | 1448 |
| 2026-05-02 13:33:03 | STARTING ENGINE 1 | 118 | 906 |
| 2026-05-02 13:33:06 | STOPPING ENGINE 1 | 120 | 857 |
| 2026-05-02 13:33:10 | STARTING ENGINE 1 | 115 | 813 |
| 2026-05-02 13:33:18 | AP DISENGAGED | 110 | 800 |
| 2026-05-02 13:33:34 | FLAP 33% | 90 | 796 |
| 2026-05-02 13:33:43 | GEAR DOWN | 79 | 798 |
| 2026-05-02 13:34:12 | FLAP 66% | 79 | 651 |
| 2026-05-02 13:34:17 | FLAP 100% | 77 | 624 |
| 2026-05-02 13:36:11 | LANDED AIRPORT [LPLA] | 51 | 172 |
| 2026-05-02 13:36:11 | LANDED - VS: -199 ft/min | 50 | 171 |
| 2026-05-02 13:36:23 | TAXI TO THE GATE | 29 | 167 |
| 2026-05-02 13:37:09 | FLAP 66% | 21 | 168 |
| 2026-05-02 13:37:09 | FLAP 0% | 21 | 168 |
| 2026-05-02 13:40:41 | AT THE GATE | 0 | 168 |
| 2026-05-02 13:41:19 | STOPPING ENGINE 1 | 0 | 168 |
| 2026-05-02 13:41:25 | LND LIGHTS OFF | 0 | 168 |
| 2026-05-02 13:41:27 | TAXI LIGHTS OFF | 0 | 168 |
| 2026-05-02 13:41:28 | NAV LIGHTS OFF | 0 | 168 |
| 2026-05-02 13:41:31 | BCN LIGHTS OFF | 0 | 168 |
| 2026-05-02 13:41:31 | FLIGHT FINISHED | 0 | 168 |
| 2026-05-02 13:44:36 | NAV LIGHTS ON | 0 | 168 |
| 2026-05-02 13:44:37 | NAV LIGHTS OFF | 0 | 168 |
| 2026-05-02 13:44:38 | NAV LIGHTS ON | 0 | 168 |
| 2026-05-02 13:44:40 | NAV LIGHTS OFF | 0 | 168 |
| 2026-05-02 13:44:41 | NAV LIGHTS ON | 0 | 168 |
| 2026-05-02 13:44:45 | BCN LIGHTS ON | 0 | 168 |
| 2026-05-02 13:44:46 | BCN LIGHTS OFF | 0 | 168 |
| 2026-05-02 13:44:47 | BCN LIGHTS ON | 0 | 168 |
| 2026-05-02 13:44:47 | BCN LIGHTS OFF | 0 | 168 |
| 2026-05-02 13:44:48 | BCN LIGHTS ON | 0 | 168 |
| 2026-05-02 13:44:48 | BCN LIGHTS OFF | 0 | 168 |
| 2026-05-02 13:44:50 | NAV LIGHTS OFF | 0 | 168 |
| 2026-05-02 13:44:52 | TAXI LIGHTS ON | 0 | 168 |
| 2026-05-02 13:44:53 | TAXI LIGHTS OFF | 0 | 168 |
| 2026-05-02 13:44:54 | TAXI LIGHTS ON | 0 | 168 |
| 2026-05-02 13:44:54 | TAXI LIGHTS OFF | 0 | 168 |
| 2026-05-02 13:44:56 | STB LIGHTS ON | 0 | 168 |
| 2026-05-02 13:44:57 | STB LIGHTS OFF | 0 | 168 |
| 2026-05-02 13:44:57 | STB LIGHTS ON | 0 | 168 |
| 2026-05-02 13:44:58 | STB LIGHTS OFF | 0 | 168 |
| 2026-05-02 13:44:59 | STB LIGHTS ON | 0 | 168 |
| 2026-05-02 13:44:59 | STB LIGHTS OFF | 0 | 168 |
| 2026-05-02 13:45:00 | STB LIGHTS ON | 0 | 168 |
| 2026-05-02 13:45:02 | STB LIGHTS OFF | 0 | 168 |
| 2026-05-02 13:45:03 | STB LIGHTS ON | 0 | 168 |
| 2026-05-02 13:45:03 | STB LIGHTS OFF | 0 | 168 |
| 2026-05-02 13:45:03 | STB LIGHTS ON | 0 | 168 |
| 2026-05-02 13:45:05 | LND LIGHTS ON | 0 | 168 |
| 2026-05-02 13:45:05 | LND LIGHTS OFF | 0 | 168 |
| 2026-05-02 13:45:06 | LND LIGHTS ON | 0 | 168 |
| 2026-05-02 13:45:06 | LND LIGHTS OFF | 0 | 168 |
| 2026-05-02 13:45:07 | LND LIGHTS ON | 0 | 168 |
| 2026-05-02 13:45:07 | STB LIGHTS OFF | 0 | 168 |
| 2026-05-02 13:45:08 | STB LIGHTS ON | 0 | 168 |
| 2026-05-02 13:45:08 | STB LIGHTS OFF | 0 | 168 |
| 2026-05-02 13:45:09 | STB LIGHTS ON | 0 | 168 |
| 2026-05-02 14:01:11 | NAV LIGHTS ON | 0 | 168 |
| 2026-05-02 14:01:12 | BCN LIGHTS ON | 0 | 168 |
| 2026-05-02 14:01:12 | TAXI LIGHTS ON | 0 | 168 |
| 2026-05-02 12:15:10 | GOLD ACARS VERSION 3.3.7.0 | 0 | 0 |
| 2026-05-02 12:15:11 | BOARDING | 0 | -95 |
| 2026-05-02 12:27:02 | STB LIGHTS ON | 0 | -95 |
| 2026-05-02 12:27:04 | STB LIGHTS OFF | 0 | -95 |
| 2026-05-02 12:30:04 | BCN LIGHTS ON | 0 | -95 |
| 2026-05-02 12:30:10 | NAV LIGHTS ON | 0 | -95 |
| 2026-05-02 12:30:14 | TAXI LIGHTS ON | 0 | -95 |
| 2026-05-02 12:30:27 | LND LIGHTS ON | 0 | -95 |
| 2026-05-02 12:30:36 | STARTING ENGINE 1 | 0 | -95 |
| 2026-05-02 12:31:45 | TAXI TO THE RWY | 0 | -93 |
| 2026-05-02 12:33:23 | FLAP 33% | 18 | -118 |
| 2026-05-02 12:33:51 | TAXI SPEED ABOVE 25 KTS | 77 | -98 |
| 2026-05-02 12:33:56 | CLIMBING | 86 | -83 |
| 2026-05-02 12:34:08 | FLAP 0% | 92 | 67 |
| 2026-05-02 12:34:13 | AP ENGAGED | 91 | 156 |
| 2026-05-02 12:34:21 | GEAR UP | 93 | 301 |
| 2026-05-02 12:40:40 | CRUISE | 89 | 6990 |
| 2026-05-02 13:09:49 | DESCEND | 113 | 6997 |
| 2026-05-02 13:32:33 | STOPPING ENGINE 1 | 137 | 1448 |
| 2026-05-02 13:33:03 | STARTING ENGINE 1 | 118 | 906 |
| 2026-05-02 13:33:06 | STOPPING ENGINE 1 | 120 | 857 |
| 2026-05-02 13:33:10 | STARTING ENGINE 1 | 115 | 813 |
| 2026-05-02 13:33:18 | AP DISENGAGED | 110 | 800 |
| 2026-05-02 13:33:34 | FLAP 33% | 90 | 796 |
| 2026-05-02 13:33:43 | GEAR DOWN | 79 | 798 |
| 2026-05-02 13:34:12 | FLAP 66% | 79 | 651 |
| 2026-05-02 13:34:17 | FLAP 100% | 77 | 624 |
| 2026-05-02 13:36:11 | LANDED AIRPORT [LPLA] | 51 | 172 |
| 2026-05-02 13:36:11 | LANDED - VS: -199 ft/min | 50 | 171 |
| 2026-05-02 13:36:23 | TAXI TO THE GATE | 29 | 167 |
| 2026-05-02 13:37:09 | FLAP 66% | 21 | 168 |
| 2026-05-02 13:37:09 | FLAP 0% | 21 | 168 |
| 2026-05-02 13:40:41 | AT THE GATE | 0 | 168 |
| 2026-05-02 13:41:19 | STOPPING ENGINE 1 | 0 | 168 |
| 2026-05-02 13:41:25 | LND LIGHTS OFF | 0 | 168 |
| 2026-05-02 13:41:27 | TAXI LIGHTS OFF | 0 | 168 |
| 2026-05-02 13:41:28 | NAV LIGHTS OFF | 0 | 168 |
| 2026-05-02 13:41:31 | BCN LIGHTS OFF | 0 | 168 |
| 2026-05-02 13:41:31 | FLIGHT FINISHED | 0 | 168 |
| 2026-05-02 13:44:36 | NAV LIGHTS ON | 0 | 168 |
| 2026-05-02 13:44:37 | NAV LIGHTS OFF | 0 | 168 |
| 2026-05-02 13:44:38 | NAV LIGHTS ON | 0 | 168 |
| 2026-05-02 13:44:40 | NAV LIGHTS OFF | 0 | 168 |
| 2026-05-02 13:44:41 | NAV LIGHTS ON | 0 | 168 |
| 2026-05-02 13:44:45 | BCN LIGHTS ON | 0 | 168 |
| 2026-05-02 13:44:46 | BCN LIGHTS OFF | 0 | 168 |
| 2026-05-02 13:44:47 | BCN LIGHTS ON | 0 | 168 |
| 2026-05-02 13:44:47 | BCN LIGHTS OFF | 0 | 168 |
| 2026-05-02 13:44:48 | BCN LIGHTS ON | 0 | 168 |
| 2026-05-02 13:44:48 | BCN LIGHTS OFF | 0 | 168 |
| 2026-05-02 13:44:50 | NAV LIGHTS OFF | 0 | 168 |
| 2026-05-02 13:44:52 | TAXI LIGHTS ON | 0 | 168 |
| 2026-05-02 13:44:53 | TAXI LIGHTS OFF | 0 | 168 |
| 2026-05-02 13:44:54 | TAXI LIGHTS ON | 0 | 168 |
| 2026-05-02 13:44:54 | TAXI LIGHTS OFF | 0 | 168 |
| 2026-05-02 13:44:56 | STB LIGHTS ON | 0 | 168 |
| 2026-05-02 13:44:57 | STB LIGHTS OFF | 0 | 168 |
| 2026-05-02 13:44:57 | STB LIGHTS ON | 0 | 168 |
| 2026-05-02 13:44:58 | STB LIGHTS OFF | 0 | 168 |
| 2026-05-02 13:44:59 | STB LIGHTS ON | 0 | 168 |
| 2026-05-02 13:44:59 | STB LIGHTS OFF | 0 | 168 |
| 2026-05-02 13:45:00 | STB LIGHTS ON | 0 | 168 |
| 2026-05-02 13:45:02 | STB LIGHTS OFF | 0 | 168 |
| 2026-05-02 13:45:03 | STB LIGHTS ON | 0 | 168 |
| 2026-05-02 13:45:03 | STB LIGHTS OFF | 0 | 168 |
| 2026-05-02 13:45:03 | STB LIGHTS ON | 0 | 168 |
| 2026-05-02 13:45:05 | LND LIGHTS ON | 0 | 168 |
| 2026-05-02 13:45:05 | LND LIGHTS OFF | 0 | 168 |
| 2026-05-02 13:45:06 | LND LIGHTS ON | 0 | 168 |
| 2026-05-02 13:45:06 | LND LIGHTS OFF | 0 | 168 |
| 2026-05-02 13:45:07 | LND LIGHTS ON | 0 | 168 |
| 2026-05-02 13:45:07 | STB LIGHTS OFF | 0 | 168 |
| 2026-05-02 13:45:08 | STB LIGHTS ON | 0 | 168 |
| 2026-05-02 13:45:08 | STB LIGHTS OFF | 0 | 168 |
| 2026-05-02 13:45:09 | STB LIGHTS ON | 0 | 168 |
| 2026-05-02 14:01:11 | NAV LIGHTS ON | 0 | 168 |
| 2026-05-02 14:01:12 | BCN LIGHTS ON | 0 | 168 |
| 2026-05-02 14:01:12 | TAXI LIGHTS ON | 0 | 168 |
| 2026-05-02 12:15:10 | GOLD ACARS VERSION 3.3.7.0 | 0 | 0 |
| 2026-05-02 12:15:11 | BOARDING | 0 | -95 |
| 2026-05-02 12:27:02 | STB LIGHTS ON | 0 | -95 |
| 2026-05-02 12:27:04 | STB LIGHTS OFF | 0 | -95 |
| 2026-05-02 12:30:04 | BCN LIGHTS ON | 0 | -95 |
| 2026-05-02 12:30:10 | NAV LIGHTS ON | 0 | -95 |
| 2026-05-02 12:30:14 | TAXI LIGHTS ON | 0 | -95 |
| 2026-05-02 12:30:27 | LND LIGHTS ON | 0 | -95 |
| 2026-05-02 12:30:36 | STARTING ENGINE 1 | 0 | -95 |
| 2026-05-02 12:31:45 | TAXI TO THE RWY | 0 | -93 |
| 2026-05-02 12:33:23 | FLAP 33% | 18 | -118 |
| 2026-05-02 12:33:51 | TAXI SPEED ABOVE 25 KTS | 77 | -98 |
| 2026-05-02 12:33:56 | CLIMBING | 86 | -83 |
| 2026-05-02 12:34:08 | FLAP 0% | 92 | 67 |
| 2026-05-02 12:34:13 | AP ENGAGED | 91 | 156 |
| 2026-05-02 12:34:21 | GEAR UP | 93 | 301 |
| 2026-05-02 12:40:40 | CRUISE | 89 | 6990 |
| 2026-05-02 13:09:49 | DESCEND | 113 | 6997 |
| 2026-05-02 13:32:33 | STOPPING ENGINE 1 | 137 | 1448 |
| 2026-05-02 13:33:03 | STARTING ENGINE 1 | 118 | 906 |
| 2026-05-02 13:33:06 | STOPPING ENGINE 1 | 120 | 857 |
| 2026-05-02 13:33:10 | STARTING ENGINE 1 | 115 | 813 |
| 2026-05-02 13:33:18 | AP DISENGAGED | 110 | 800 |
| 2026-05-02 13:33:34 | FLAP 33% | 90 | 796 |
| 2026-05-02 13:33:43 | GEAR DOWN | 79 | 798 |
| 2026-05-02 13:34:12 | FLAP 66% | 79 | 651 |
| 2026-05-02 13:34:17 | FLAP 100% | 77 | 624 |
| 2026-05-02 13:36:11 | LANDED AIRPORT [LPLA] | 51 | 172 |
| 2026-05-02 13:36:11 | LANDED - VS: -199 ft/min | 50 | 171 |
| 2026-05-02 13:36:23 | TAXI TO THE GATE | 29 | 167 |
| 2026-05-02 13:37:09 | FLAP 66% | 21 | 168 |
| 2026-05-02 13:37:09 | FLAP 0% | 21 | 168 |
| 2026-05-02 13:40:41 | AT THE GATE | 0 | 168 |
| 2026-05-02 13:41:19 | STOPPING ENGINE 1 | 0 | 168 |
| 2026-05-02 13:41:25 | LND LIGHTS OFF | 0 | 168 |
| 2026-05-02 13:41:27 | TAXI LIGHTS OFF | 0 | 168 |
| 2026-05-02 13:41:28 | NAV LIGHTS OFF | 0 | 168 |
| 2026-05-02 13:41:31 | BCN LIGHTS OFF | 0 | 168 |
| 2026-05-02 13:41:31 | FLIGHT FINISHED | 0 | 168 |
| 2026-05-02 13:44:36 | NAV LIGHTS ON | 0 | 168 |
| 2026-05-02 13:44:37 | NAV LIGHTS OFF | 0 | 168 |
| 2026-05-02 13:44:38 | NAV LIGHTS ON | 0 | 168 |
| 2026-05-02 13:44:40 | NAV LIGHTS OFF | 0 | 168 |
| 2026-05-02 13:44:41 | NAV LIGHTS ON | 0 | 168 |
| 2026-05-02 13:44:45 | BCN LIGHTS ON | 0 | 168 |
| 2026-05-02 13:44:46 | BCN LIGHTS OFF | 0 | 168 |
| 2026-05-02 13:44:47 | BCN LIGHTS ON | 0 | 168 |
| 2026-05-02 13:44:47 | BCN LIGHTS OFF | 0 | 168 |
| 2026-05-02 13:44:48 | BCN LIGHTS ON | 0 | 168 |
| 2026-05-02 13:44:48 | BCN LIGHTS OFF | 0 | 168 |
| 2026-05-02 13:44:50 | NAV LIGHTS OFF | 0 | 168 |
| 2026-05-02 13:44:52 | TAXI LIGHTS ON | 0 | 168 |
| 2026-05-02 13:44:53 | TAXI LIGHTS OFF | 0 | 168 |
| 2026-05-02 13:44:54 | TAXI LIGHTS ON | 0 | 168 |
| 2026-05-02 13:44:54 | TAXI LIGHTS OFF | 0 | 168 |
| 2026-05-02 13:44:56 | STB LIGHTS ON | 0 | 168 |
| 2026-05-02 13:44:57 | STB LIGHTS OFF | 0 | 168 |
| 2026-05-02 13:44:57 | STB LIGHTS ON | 0 | 168 |
| 2026-05-02 13:44:58 | STB LIGHTS OFF | 0 | 168 |
| 2026-05-02 13:44:59 | STB LIGHTS ON | 0 | 168 |
| 2026-05-02 13:44:59 | STB LIGHTS OFF | 0 | 168 |
| 2026-05-02 13:45:00 | STB LIGHTS ON | 0 | 168 |
| 2026-05-02 13:45:02 | STB LIGHTS OFF | 0 | 168 |
| 2026-05-02 13:45:03 | STB LIGHTS ON | 0 | 168 |
| 2026-05-02 13:45:03 | STB LIGHTS OFF | 0 | 168 |
| 2026-05-02 13:45:03 | STB LIGHTS ON | 0 | 168 |
| 2026-05-02 13:45:05 | LND LIGHTS ON | 0 | 168 |
| 2026-05-02 13:45:05 | LND LIGHTS OFF | 0 | 168 |
| 2026-05-02 13:45:06 | LND LIGHTS ON | 0 | 168 |
| 2026-05-02 13:45:06 | LND LIGHTS OFF | 0 | 168 |
| 2026-05-02 13:45:07 | LND LIGHTS ON | 0 | 168 |
| 2026-05-02 13:45:07 | STB LIGHTS OFF | 0 | 168 |
| 2026-05-02 13:45:08 | STB LIGHTS ON | 0 | 168 |
| 2026-05-02 13:45:08 | STB LIGHTS OFF | 0 | 168 |
| 2026-05-02 13:45:09 | STB LIGHTS ON | 0 | 168 |
| 2026-05-02 14:01:11 | NAV LIGHTS ON | 0 | 168 |
| 2026-05-02 14:01:12 | BCN LIGHTS ON | 0 | 168 |
| 2026-05-02 14:01:12 | TAXI LIGHTS ON | 0 | 168 |
| 2026-05-02 12:15:10 | GOLD ACARS VERSION 3.3.7.0 | 0 | 0 |
| 2026-05-02 12:15:11 | BOARDING | 0 | -95 |
| 2026-05-02 12:27:02 | STB LIGHTS ON | 0 | -95 |
| 2026-05-02 12:27:04 | STB LIGHTS OFF | 0 | -95 |
| 2026-05-02 12:30:04 | BCN LIGHTS ON | 0 | -95 |
| 2026-05-02 12:30:10 | NAV LIGHTS ON | 0 | -95 |
| 2026-05-02 12:30:14 | TAXI LIGHTS ON | 0 | -95 |
| 2026-05-02 12:30:27 | LND LIGHTS ON | 0 | -95 |
| 2026-05-02 12:30:36 | STARTING ENGINE 1 | 0 | -95 |
| 2026-05-02 12:31:45 | TAXI TO THE RWY | 0 | -93 |
| 2026-05-02 12:33:23 | FLAP 33% | 18 | -118 |
| 2026-05-02 12:33:51 | TAXI SPEED ABOVE 25 KTS | 77 | -98 |
| 2026-05-02 12:33:56 | CLIMBING | 86 | -83 |
| 2026-05-02 12:34:08 | FLAP 0% | 92 | 67 |
| 2026-05-02 12:34:13 | AP ENGAGED | 91 | 156 |
| 2026-05-02 12:34:21 | GEAR UP | 93 | 301 |
| 2026-05-02 12:40:40 | CRUISE | 89 | 6990 |
| 2026-05-02 13:09:49 | DESCEND | 113 | 6997 |
| 2026-05-02 13:32:33 | STOPPING ENGINE 1 | 137 | 1448 |
| 2026-05-02 13:33:03 | STARTING ENGINE 1 | 118 | 906 |
| 2026-05-02 13:33:06 | STOPPING ENGINE 1 | 120 | 857 |
| 2026-05-02 13:33:10 | STARTING ENGINE 1 | 115 | 813 |
| 2026-05-02 13:33:18 | AP DISENGAGED | 110 | 800 |
| 2026-05-02 13:33:34 | FLAP 33% | 90 | 796 |
| 2026-05-02 13:33:43 | GEAR DOWN | 79 | 798 |
| 2026-05-02 13:34:12 | FLAP 66% | 79 | 651 |
| 2026-05-02 13:34:17 | FLAP 100% | 77 | 624 |
| 2026-05-02 13:36:11 | LANDED AIRPORT [LPLA] | 51 | 172 |
| 2026-05-02 13:36:11 | LANDED - VS: -199 ft/min | 50 | 171 |
| 2026-05-02 13:36:23 | TAXI TO THE GATE | 29 | 167 |
| 2026-05-02 13:37:09 | FLAP 66% | 21 | 168 |
| 2026-05-02 13:37:09 | FLAP 0% | 21 | 168 |
| 2026-05-02 13:40:41 | AT THE GATE | 0 | 168 |
| 2026-05-02 13:41:19 | STOPPING ENGINE 1 | 0 | 168 |
| 2026-05-02 13:41:25 | LND LIGHTS OFF | 0 | 168 |
| 2026-05-02 13:41:27 | TAXI LIGHTS OFF | 0 | 168 |
| 2026-05-02 13:41:28 | NAV LIGHTS OFF | 0 | 168 |
| 2026-05-02 13:41:31 | BCN LIGHTS OFF | 0 | 168 |
| 2026-05-02 13:41:31 | FLIGHT FINISHED | 0 | 168 |
| 2026-05-02 13:44:36 | NAV LIGHTS ON | 0 | 168 |
| 2026-05-02 13:44:37 | NAV LIGHTS OFF | 0 | 168 |
| 2026-05-02 13:44:38 | NAV LIGHTS ON | 0 | 168 |
| 2026-05-02 13:44:40 | NAV LIGHTS OFF | 0 | 168 |
| 2026-05-02 13:44:41 | NAV LIGHTS ON | 0 | 168 |
| 2026-05-02 13:44:45 | BCN LIGHTS ON | 0 | 168 |
| 2026-05-02 13:44:46 | BCN LIGHTS OFF | 0 | 168 |
| 2026-05-02 13:44:47 | BCN LIGHTS ON | 0 | 168 |
| 2026-05-02 13:44:47 | BCN LIGHTS OFF | 0 | 168 |
| 2026-05-02 13:44:48 | BCN LIGHTS ON | 0 | 168 |
| 2026-05-02 13:44:48 | BCN LIGHTS OFF | 0 | 168 |
| 2026-05-02 13:44:50 | NAV LIGHTS OFF | 0 | 168 |
| 2026-05-02 13:44:52 | TAXI LIGHTS ON | 0 | 168 |
| 2026-05-02 13:44:53 | TAXI LIGHTS OFF | 0 | 168 |
| 2026-05-02 13:44:54 | TAXI LIGHTS ON | 0 | 168 |
| 2026-05-02 13:44:54 | TAXI LIGHTS OFF | 0 | 168 |
| 2026-05-02 13:44:56 | STB LIGHTS ON | 0 | 168 |
| 2026-05-02 13:44:57 | STB LIGHTS OFF | 0 | 168 |
| 2026-05-02 13:44:57 | STB LIGHTS ON | 0 | 168 |
| 2026-05-02 13:44:58 | STB LIGHTS OFF | 0 | 168 |
| 2026-05-02 13:44:59 | STB LIGHTS ON | 0 | 168 |
| 2026-05-02 13:44:59 | STB LIGHTS OFF | 0 | 168 |
| 2026-05-02 13:45:00 | STB LIGHTS ON | 0 | 168 |
| 2026-05-02 13:45:02 | STB LIGHTS OFF | 0 | 168 |
| 2026-05-02 13:45:03 | STB LIGHTS ON | 0 | 168 |
| 2026-05-02 13:45:03 | STB LIGHTS OFF | 0 | 168 |
| 2026-05-02 13:45:03 | STB LIGHTS ON | 0 | 168 |
| 2026-05-02 13:45:05 | LND LIGHTS ON | 0 | 168 |
| 2026-05-02 13:45:05 | LND LIGHTS OFF | 0 | 168 |
| 2026-05-02 13:45:06 | LND LIGHTS ON | 0 | 168 |
| 2026-05-02 13:45:06 | LND LIGHTS OFF | 0 | 168 |
| 2026-05-02 13:45:07 | LND LIGHTS ON | 0 | 168 |
| 2026-05-02 13:45:07 | STB LIGHTS OFF | 0 | 168 |
| 2026-05-02 13:45:08 | STB LIGHTS ON | 0 | 168 |
| 2026-05-02 13:45:08 | STB LIGHTS OFF | 0 | 168 |
| 2026-05-02 13:45:09 | STB LIGHTS ON | 0 | 168 |
| 2026-05-02 14:01:11 | NAV LIGHTS ON | 0 | 168 |
| 2026-05-02 14:01:12 | BCN LIGHTS ON | 0 | 168 |
| 2026-05-02 14:01:12 | TAXI LIGHTS ON | 0 | 168 |
| DATE | IAS | GS | ALTITUDE | FUEL USED | OAT | Flight Phase |
|---|---|---|---|---|---|---|
| 2026-05-02 12:16:26 | 0 | 0 | -95 | 0 | 18 | BOARDING |
| 2026-05-02 12:17:27 | 0 | 0 | -95 | 0 | 18 | BOARDING |
| 2026-05-02 12:18:27 | 0 | 0 | -95 | 0 | 18 | BOARDING |
| 2026-05-02 12:19:28 | 0 | 0 | -95 | 0 | 18 | BOARDING |
| 2026-05-02 12:20:28 | 0 | 0 | -95 | 0 | 18 | BOARDING |
| 2026-05-02 12:21:29 | 0 | 0 | -95 | 0 | 18 | BOARDING |
| 2026-05-02 12:22:29 | 0 | 0 | -95 | 0 | 18 | BOARDING |
| 2026-05-02 12:23:30 | 0 | 0 | -95 | 0 | 18 | BOARDING |
| 2026-05-02 12:24:30 | 0 | 0 | -95 | 0 | 18 | BOARDING |
| 2026-05-02 12:25:31 | 0 | 0 | -95 | 0 | 18 | BOARDING |
| 2026-05-02 12:26:31 | 0 | 0 | -95 | 0 | 18 | BOARDING |
| 2026-05-02 12:27:32 | 0 | 0 | -95 | 0 | 18 | BOARDING |
| 2026-05-02 12:28:33 | 0 | 0 | -95 | 0 | 18 | BOARDING |
| 2026-05-02 12:29:34 | 0 | 0 | -95 | 0 | 18 | BOARDING |
| 2026-05-02 12:30:34 | 0 | 0 | -95 | 0 | 18 | BOARDING |
| 2026-05-02 12:31:35 | 0 | 0 | -95 | 0 | 18 | BOARDING |
| 2026-05-02 12:32:35 | 4 | 23 | -100 | 0 | 18 | BOARDING |
| 2026-05-02 12:33:36 | 38 | 18 | -116 | 0 | 18 | TAXI TO THE RWY |
| 2026-05-02 12:34:36 | 100 | 76 | 611 | 1 | 16 | TAXI TO THE RWY |
| 2026-05-02 12:35:37 | 102 | 81 | 1836 | 2 | 11 | CLIMBING |
| 2026-05-02 12:36:38 | 99 | 81 | 3008 | 3 | 8 | CLIMBING |
| 2026-05-02 12:37:39 | 96 | 80 | 4104 | 3 | 6 | CLIMBING |
| 2026-05-02 12:38:39 | 91 | 80 | 5156 | 4 | 4 | CLIMBING |
| 2026-05-02 12:39:40 | 89 | 79 | 6139 | 5 | 3 | CLIMBING |
| 2026-05-02 12:40:40 | 89 | 81 | 6990 | 6 | 2 | CLIMBING |
| 2026-05-02 12:41:41 | 102 | 95 | 7000 | 6 | 2 | CRUISE |
| 2026-05-02 12:42:42 | 117 | 116 | 7010 | 7 | 2 | CRUISE |
| 2026-05-02 12:43:43 | 108 | 106 | 6997 | 7 | 2 | CRUISE |
| 2026-05-02 12:44:43 | 87 | 80 | 6991 | 7 | 2 | CRUISE |
| 2026-05-02 12:45:44 | 78 | 72 | 6991 | 7 | 2 | CRUISE |
| 2026-05-02 12:46:44 | 94 | 90 | 7013 | 8 | 2 | CRUISE |
| 2026-05-02 12:47:45 | 106 | 101 | 7008 | 8 | 2 | CRUISE |
| 2026-05-02 12:48:46 | 102 | 95 | 6996 | 8 | 2 | CRUISE |
| 2026-05-02 12:49:47 | 97 | 93 | 6992 | 8 | 2 | CRUISE |
| 2026-05-02 12:50:47 | 100 | 97 | 6996 | 9 | 2 | CRUISE |
| 2026-05-02 12:51:48 | 106 | 103 | 7010 | 9 | 2 | CRUISE |
| 2026-05-02 12:52:48 | 108 | 104 | 7007 | 9 | 2 | CRUISE |
| 2026-05-02 12:53:49 | 109 | 105 | 7007 | 10 | 2 | CRUISE |
| 2026-05-02 12:54:49 | 111 | 106 | 7009 | 10 | 2 | CRUISE |
| 2026-05-02 12:55:50 | 105 | 132 | 6997 | 11 | 2 | CRUISE |
| 2026-05-02 12:56:51 | 107 | 134 | 7008 | 11 | 2 | CRUISE |
| 2026-05-02 12:57:51 | 110 | 133 | 7009 | 11 | 2 | CRUISE |
| 2026-05-02 12:58:52 | 109 | 133 | 7002 | 12 | 2 | CRUISE |
| 2026-05-02 12:59:53 | 108 | 135 | 7002 | 12 | 2 | CRUISE |
| 2026-05-02 13:00:53 | 108 | 134 | 7000 | 12 | 2 | CRUISE |
| 2026-05-02 13:01:54 | 109 | 132 | 6977 | 13 | 2 | CRUISE |
| 2026-05-02 13:02:54 | 107 | 104 | 7001 | 13 | 2 | CRUISE |
| 2026-05-02 13:03:55 | 110 | 105 | 7006 | 13 | 2 | CRUISE |
| 2026-05-02 13:04:56 | 109 | 106 | 7005 | 14 | 2 | CRUISE |
| 2026-05-02 13:05:57 | 107 | 102 | 6993 | 14 | 2 | CRUISE |
| 2026-05-02 13:06:57 | 106 | 99 | 6993 | 14 | 2 | CRUISE |
| 2026-05-02 13:07:58 | 106 | 100 | 6994 | 15 | 2 | CRUISE |
| 2026-05-02 13:08:58 | 107 | 103 | 7000 | 15 | 2 | CRUISE |
| 2026-05-02 13:10:00 | 124 | 118 | 6816 | 15 | 2 | CRUISE |
| 2026-05-02 13:11:00 | 141 | 128 | 5388 | 16 | 4 | DESCEND |
| 2026-05-02 13:12:01 | 120 | 108 | 4994 | 16 | 4 | DESCEND |
| 2026-05-02 13:13:01 | 105 | 90 | 4990 | 16 | 4 | DESCEND |
| 2026-05-02 13:14:02 | 104 | 89 | 4991 | 16 | 4 | DESCEND |
| 2026-05-02 13:15:03 | 109 | 95 | 5009 | 17 | 5 | DESCEND |
| 2026-05-02 13:16:04 | 103 | 90 | 4998 | 17 | 5 | DESCEND |
| 2026-05-02 13:17:04 | 126 | 114 | 5013 | 18 | 5 | DESCEND |
| 2026-05-02 13:18:05 | 146 | 136 | 5009 | 18 | 5 | DESCEND |
| 2026-05-02 13:19:06 | 148 | 139 | 5009 | 19 | 5 | DESCEND |
| 2026-05-02 13:20:07 | 129 | 120 | 4990 | 20 | 5 | DESCEND |
| 2026-05-02 13:21:07 | 132 | 121 | 4996 | 20 | 5 | DESCEND |
| 2026-05-02 13:22:08 | 134 | 124 | 5003 | 21 | 5 | DESCEND |
| 2026-05-02 13:23:08 | 134 | 124 | 5004 | 21 | 5 | DESCEND |
| 2026-05-02 13:24:09 | 137 | 125 | 4870 | 22 | 5 | DESCEND |
| 2026-05-02 13:25:10 | 134 | 122 | 4319 | 22 | 6 | DESCEND |
| 2026-05-02 13:26:11 | 145 | 129 | 3835 | 23 | 7 | DESCEND |
| 2026-05-02 13:27:11 | 146 | 130 | 3321 | 23 | 8 | DESCEND |
| 2026-05-02 13:28:13 | 147 | 130 | 2814 | 24 | 9 | DESCEND |
| 2026-05-02 13:29:13 | 148 | 131 | 2276 | 24 | 10 | DESCEND |
| 2026-05-02 13:30:14 | 142 | 126 | 2001 | 25 | 10 | DESCEND |
| 2026-05-02 13:31:15 | 138 | 126 | 1991 | 26 | 10 | DESCEND |
| 2026-05-02 13:32:16 | 140 | 125 | 1786 | 26 | 11 | DESCEND |
| 2026-05-02 13:33:16 | 111 | 96 | 802 | 26 | 15 | DESCEND |
| 2026-05-02 13:34:17 | 77 | 56 | 624 | 26 | 15 | DESCEND |
| 2026-05-02 13:35:18 | 59 | 44 | 300 | 27 | 16 | DESCEND |
| 2026-05-02 13:36:19 | 44 | 23 | 166 | 27 | 16 | DESCEND |
| 2026-05-02 13:37:19 | 20 | 5 | 168 | 27 | 16 | LANDED - VS: -199 ft/min |
| 2026-05-02 13:38:20 | 31 | 18 | 169 | 27 | 16 | TAXI TO THE GATE |
| 2026-05-02 13:39:20 | 22 | 6 | 168 | 27 | 16 | TAXI TO THE GATE |
| 2026-05-02 13:40:21 | 0 | 8 | 168 | 27 | 16 | TAXI TO THE GATE |
| 2026-05-02 13:41:22 | 0 | 0 | 168 | 27 | 16 | TAXI TO THE GATE |
| 2026-05-02 14:01:35 | 0 | 0 | -54 | 0 | 27 | AT THE GATE |